sensor_id;sensor_type;location;lat;lon;timestamp;P1;durP1;ratioP1;P2;durP2;ratioP2
10687;SDS011;5392;42.688;23.298;2023-06-10T00:00:47;4.60;;;4.40;;
10687;SDS011;5392;42.688;23.298;2023-06-10T00:03:13;5.20;;;4.15;;
10687;SDS011;5392;42.688;23.298;2023-06-10T00:05:41;3.15;;;3.05;;
10687;SDS011;5392;42.688;23.298;2023-06-10T00:08:07;4.07;;;3.70;;
10687;SDS011;5392;42.688;23.298;2023-06-10T00:10:34;3.42;;;3.33;;
10687;SDS011;5392;42.688;23.298;2023-06-10T00:13:02;3.50;;;3.20;;
10687;SDS011;5392;42.688;23.298;2023-06-10T00:15:31;3.45;;;3.15;;
10687;SDS011;5392;42.688;23.298;2023-06-10T00:17:57;4.00;;;3.90;;
10687;SDS011;5392;42.688;23.298;2023-06-10T00:20:24;3.83;;;3.63;;
10687;SDS011;5392;42.688;23.298;2023-06-10T00:22:52;4.20;;;4.00;;
10687;SDS011;5392;42.688;23.298;2023-06-10T00:25:19;3.72;;;3.63;;
10687;SDS011;5392;42.688;23.298;2023-06-10T00:27:45;4.47;;;4.13;;
10687;SDS011;5392;42.688;23.298;2023-06-10T00:30:12;4.15;;;3.85;;
10687;SDS011;5392;42.688;23.298;2023-06-10T00:32:39;4.45;;;4.10;;
10687;SDS011;5392;42.688;23.298;2023-06-10T00:35:06;4.15;;;4.05;;
10687;SDS011;5392;42.688;23.298;2023-06-10T00:37:34;4.28;;;4.13;;
10687;SDS011;5392;42.688;23.298;2023-06-10T00:40:02;5.63;;;4.03;;
10687;SDS011;5392;42.688;23.298;2023-06-10T00:42:29;4.25;;;3.97;;
10687;SDS011;5392;42.688;23.298;2023-06-10T00:44:56;4.88;;;4.50;;
10687;SDS011;5392;42.688;23.298;2023-06-10T00:47:24;4.28;;;4.10;;
10687;SDS011;5392;42.688;23.298;2023-06-10T00:49:52;5.18;;;4.80;;
10687;SDS011;5392;42.688;23.298;2023-06-10T00:52:21;7.18;;;6.55;;
10687;SDS011;5392;42.688;23.298;2023-06-10T00:54:48;6.55;;;6.20;;
10687;SDS011;5392;42.688;23.298;2023-06-10T00:57:17;8.50;;;7.75;;
10687;SDS011;5392;42.688;23.298;2023-06-10T00:59:46;8.48;;;7.15;;
10687;SDS011;5392;42.688;23.298;2023-06-10T01:02:14;5.90;;;5.60;;
10687;SDS011;5392;42.688;23.298;2023-06-10T01:04:41;6.07;;;5.63;;
10687;SDS011;5392;42.688;23.298;2023-06-10T01:07:17;6.30;;;5.78;;
10687;SDS011;5392;42.688;23.298;2023-06-10T01:10:34;6.60;;;6.00;;
10687;SDS011;5392;42.688;23.298;2023-06-10T01:15:26;6.47;;;5.88;;
10687;SDS011;5392;42.688;23.298;2023-06-10T01:17:53;6.18;;;5.78;;
10687;SDS011;5392;42.688;23.298;2023-06-10T01:20:27;6.93;;;6.15;;
10687;SDS011;5392;42.688;23.298;2023-06-10T01:22:56;6.43;;;5.85;;
10687;SDS011;5392;42.688;23.298;2023-06-10T01:25:24;6.35;;;5.95;;
10687;SDS011;5392;42.688;23.298;2023-06-10T01:28:02;7.35;;;6.60;;
10687;SDS011;5392;42.688;23.298;2023-06-10T01:30:37;12.65;;;11.30;;
10687;SDS011;5392;42.688;23.298;2023-06-10T01:33:12;7.15;;;6.45;;
10687;SDS011;5392;42.688;23.298;2023-06-10T01:35:41;6.13;;;5.63;;
10687;SDS011;5392;42.688;23.298;2023-06-10T01:38:10;8.27;;;6.25;;
10687;SDS011;5392;42.688;23.298;2023-06-10T01:40:39;6.80;;;6.20;;
10687;SDS011;5392;42.688;23.298;2023-06-10T01:43:07;7.35;;;6.15;;
10687;SDS011;5392;42.688;23.298;2023-06-10T01:45:33;7.13;;;6.38;;
10687;SDS011;5392;42.688;23.298;2023-06-10T01:48:01;7.60;;;6.38;;
10687;SDS011;5392;42.688;23.298;2023-06-10T01:50:28;6.25;;;5.85;;
10687;SDS011;5392;42.688;23.298;2023-06-10T01:52:56;7.30;;;6.32;;
10687;SDS011;5392;42.688;23.298;2023-06-10T01:55:24;6.30;;;5.65;;
10687;SDS011;5392;42.688;23.298;2023-06-10T01:57:51;6.50;;;5.07;;
10687;SDS011;5392;42.688;23.298;2023-06-10T02:00:18;5.80;;;5.20;;
10687;SDS011;5392;42.688;23.298;2023-06-10T02:02:44;9.70;;;5.63;;
10687;SDS011;5392;42.688;23.298;2023-06-10T02:05:11;6.45;;;5.30;;
10687;SDS011;5392;42.688;23.298;2023-06-10T02:07:38;5.43;;;5.10;;
10687;SDS011;5392;42.688;23.298;2023-06-10T02:10:05;6.22;;;5.85;;
10687;SDS011;5392;42.688;23.298;2023-06-10T02:12:33;8.57;;;5.20;;
10687;SDS011;5392;42.688;23.298;2023-06-10T02:14:59;5.05;;;4.63;;
10687;SDS011;5392;42.688;23.298;2023-06-10T02:17:26;5.35;;;4.13;;
10687;SDS011;5392;42.688;23.298;2023-06-10T02:19:53;5.25;;;4.75;;
10687;SDS011;5392;42.688;23.298;2023-06-10T02:22:20;4.78;;;4.55;;
10687;SDS011;5392;42.688;23.298;2023-06-10T02:24:48;5.55;;;4.47;;
10687;SDS011;5392;42.688;23.298;2023-06-10T02:27:15;4.55;;;4.32;;
10687;SDS011;5392;42.688;23.298;2023-06-10T02:29:42;5.18;;;4.78;;
10687;SDS011;5392;42.688;23.298;2023-06-10T02:32:09;4.72;;;4.43;;
10687;SDS011;5392;42.688;23.298;2023-06-10T02:34:37;4.45;;;4.05;;
10687;SDS011;5392;42.688;23.298;2023-06-10T02:37:22;4.25;;;3.92;;
10687;SDS011;5392;42.688;23.298;2023-06-10T02:39:48;7.05;;;4.50;;
10687;SDS011;5392;42.688;23.298;2023-06-10T02:42:15;4.55;;;4.25;;
10687;SDS011;5392;42.688;23.298;2023-06-10T02:44:41;4.63;;;4.22;;
10687;SDS011;5392;42.688;23.298;2023-06-10T02:47:08;5.38;;;4.63;;
10687;SDS011;5392;42.688;23.298;2023-06-10T02:49:35;5.88;;;5.45;;
10687;SDS011;5392;42.688;23.298;2023-06-10T02:52:02;5.13;;;4.80;;
10687;SDS011;5392;42.688;23.298;2023-06-10T02:54:29;5.38;;;4.88;;
10687;SDS011;5392;42.688;23.298;2023-06-10T02:56:56;5.80;;;4.93;;
10687;SDS011;5392;42.688;23.298;2023-06-10T02:59:22;5.35;;;5.00;;
10687;SDS011;5392;42.688;23.298;2023-06-10T03:01:49;5.47;;;5.28;;
10687;SDS011;5392;42.688;23.298;2023-06-10T03:04:16;6.03;;;5.40;;
10687;SDS011;5392;42.688;23.298;2023-06-10T03:06:42;8.13;;;5.72;;
10687;SDS011;5392;42.688;23.298;2023-06-10T03:09:11;5.95;;;5.47;;
10687;SDS011;5392;42.688;23.298;2023-06-10T03:11:38;4.63;;;4.43;;
10687;SDS011;5392;42.688;23.298;2023-06-10T03:14:05;5.20;;;5.00;;
10687;SDS011;5392;42.688;23.298;2023-06-10T03:16:32;5.53;;;5.03;;
10687;SDS011;5392;42.688;23.298;2023-06-10T03:18:58;6.45;;;5.97;;
10687;SDS011;5392;42.688;23.298;2023-06-10T03:21:25;5.97;;;5.45;;
10687;SDS011;5392;42.688;23.298;2023-06-10T03:23:53;9.02;;;7.10;;
10687;SDS011;5392;42.688;23.298;2023-06-10T03:26:20;6.03;;;5.60;;
10687;SDS011;5392;42.688;23.298;2023-06-10T03:28:47;7.50;;;6.85;;
10687;SDS011;5392;42.688;23.298;2023-06-10T03:31:15;7.20;;;6.78;;
10687;SDS011;5392;42.688;23.298;2023-06-10T03:33:43;8.63;;;7.07;;
10687;SDS011;5392;42.688;23.298;2023-06-10T03:36:10;7.63;;;7.00;;
10687;SDS011;5392;42.688;23.298;2023-06-10T03:38:36;8.27;;;7.68;;
10687;SDS011;5392;42.688;23.298;2023-06-10T03:41:03;7.88;;;7.18;;
10687;SDS011;5392;42.688;23.298;2023-06-10T03:43:30;7.55;;;6.88;;
10687;SDS011;5392;42.688;23.298;2023-06-10T03:45:58;8.05;;;7.22;;
10687;SDS011;5392;42.688;23.298;2023-06-10T03:48:24;7.88;;;7.28;;
10687;SDS011;5392;42.688;23.298;2023-06-10T03:50:51;9.25;;;8.40;;
10687;SDS011;5392;42.688;23.298;2023-06-10T03:53:18;9.35;;;8.55;;
10687;SDS011;5392;42.688;23.298;2023-06-10T03:55:45;7.97;;;7.47;;
10687;SDS011;5392;42.688;23.298;2023-06-10T03:58:12;16.80;;;8.63;;
10687;SDS011;5392;42.688;23.298;2023-06-10T04:00:41;8.75;;;7.80;;
10687;SDS011;5392;42.688;23.298;2023-06-10T04:03:08;8.38;;;7.78;;
10687;SDS011;5392;42.688;23.298;2023-06-10T04:05:35;7.70;;;7.10;;
10687;SDS011;5392;42.688;23.298;2023-06-10T04:08:02;7.40;;;6.68;;
10687;SDS011;5392;42.688;23.298;2023-06-10T04:10:29;8.52;;;7.00;;
10687;SDS011;5392;42.688;23.298;2023-06-10T04:12:56;8.15;;;6.53;;
10687;SDS011;5392;42.688;23.298;2023-06-10T04:15:23;11.95;;;8.50;;
10687;SDS011;5392;42.688;23.298;2023-06-10T04:17:49;7.80;;;7.10;;
10687;SDS011;5392;42.688;23.298;2023-06-10T04:20:16;5.22;;;4.95;;
10687;SDS011;5392;42.688;23.298;2023-06-10T04:22:43;6.28;;;5.82;;
10687;SDS011;5392;42.688;23.298;2023-06-10T04:25:10;5.18;;;4.70;;
10687;SDS011;5392;42.688;23.298;2023-06-10T04:27:37;7.70;;;5.72;;
10687;SDS011;5392;42.688;23.298;2023-06-10T04:30:04;7.18;;;6.50;;
10687;SDS011;5392;42.688;23.298;2023-06-10T04:32:31;5.40;;;4.85;;
10687;SDS011;5392;42.688;23.298;2023-06-10T04:34:59;5.82;;;5.43;;
10687;SDS011;5392;42.688;23.298;2023-06-10T04:37:26;5.05;;;4.75;;
10687;SDS011;5392;42.688;23.298;2023-06-10T04:39:55;5.25;;;4.85;;
10687;SDS011;5392;42.688;23.298;2023-06-10T04:42:22;6.18;;;5.57;;
10687;SDS011;5392;42.688;23.298;2023-06-10T04:44:49;6.15;;;5.13;;
10687;SDS011;5392;42.688;23.298;2023-06-10T04:47:16;6.07;;;5.57;;
10687;SDS011;5392;42.688;23.298;2023-06-10T04:49:43;4.75;;;4.38;;
10687;SDS011;5392;42.688;23.298;2023-06-10T04:52:10;3.80;;;3.50;;
10687;SDS011;5392;42.688;23.298;2023-06-10T04:54:37;16.13;;;5.15;;
10687;SDS011;5392;42.688;23.298;2023-06-10T04:57:04;5.18;;;3.65;;
10687;SDS011;5392;42.688;23.298;2023-06-10T04:59:33;9.55;;;4.82;;
10687;SDS011;5392;42.688;23.298;2023-06-10T05:02:04;21.67;;;4.97;;
10687;SDS011;5392;42.688;23.298;2023-06-10T05:04:31;7.60;;;5.25;;
10687;SDS011;5392;42.688;23.298;2023-06-10T05:06:58;7.35;;;5.85;;
10687;SDS011;5392;42.688;23.298;2023-06-10T05:09:24;10.23;;;5.28;;
10687;SDS011;5392;42.688;23.298;2023-06-10T05:11:52;4.93;;;4.60;;
10687;SDS011;5392;42.688;23.298;2023-06-10T05:14:20;6.22;;;5.63;;
10687;SDS011;5392;42.688;23.298;2023-06-10T05:16:47;9.95;;;5.95;;
10687;SDS011;5392;42.688;23.298;2023-06-10T05:19:15;5.45;;;4.93;;
10687;SDS011;5392;42.688;23.298;2023-06-10T05:21:45;6.10;;;4.15;;
10687;SDS011;5392;42.688;23.298;2023-06-10T05:24:12;6.35;;;4.55;;
10687;SDS011;5392;42.688;23.298;2023-06-10T05:26:38;4.60;;;4.20;;
10687;SDS011;5392;42.688;23.298;2023-06-10T05:29:07;4.38;;;4.10;;
10687;SDS011;5392;42.688;23.298;2023-06-10T05:31:35;5.97;;;4.35;;
10687;SDS011;5392;42.688;23.298;2023-06-10T05:34:02;5.63;;;5.00;;
10687;SDS011;5392;42.688;23.298;2023-06-10T05:36:29;5.55;;;5.15;;
10687;SDS011;5392;42.688;23.298;2023-06-10T05:38:56;7.72;;;4.95;;
10687;SDS011;5392;42.688;23.298;2023-06-10T05:41:22;4.80;;;4.30;;
10687;SDS011;5392;42.688;23.298;2023-06-10T05:43:49;4.22;;;3.75;;
10687;SDS011;5392;42.688;23.298;2023-06-10T05:46:16;7.10;;;5.47;;
10687;SDS011;5392;42.688;23.298;2023-06-10T05:48:42;8.50;;;6.20;;
10687;SDS011;5392;42.688;23.298;2023-06-10T05:51:09;6.38;;;5.68;;
10687;SDS011;5392;42.688;23.298;2023-06-10T05:53:36;7.93;;;5.93;;
10687;SDS011;5392;42.688;23.298;2023-06-10T05:56:04;7.05;;;6.43;;
10687;SDS011;5392;42.688;23.298;2023-06-10T05:58:31;7.57;;;7.05;;
10687;SDS011;5392;42.688;23.298;2023-06-10T06:00:58;4.72;;;4.35;;
10687;SDS011;5392;42.688;23.298;2023-06-10T06:03:24;9.65;;;7.63;;
10687;SDS011;5392;42.688;23.298;2023-06-10T06:05:51;9.25;;;5.80;;
10687;SDS011;5392;42.688;23.298;2023-06-10T06:08:18;3.28;;;3.08;;
10687;SDS011;5392;42.688;23.298;2023-06-10T06:10:45;4.00;;;2.80;;
10687;SDS011;5392;42.688;23.298;2023-06-10T06:13:14;4.22;;;2.53;;
10687;SDS011;5392;42.688;23.298;2023-06-10T06:15:40;3.75;;;2.67;;
10687;SDS011;5392;42.688;23.298;2023-06-10T06:18:07;4.68;;;2.50;;
10687;SDS011;5392;42.688;23.298;2023-06-10T06:20:34;4.88;;;2.28;;
10687;SDS011;5392;42.688;23.298;2023-06-10T06:23:00;3.30;;;2.60;;
10687;SDS011;5392;42.688;23.298;2023-06-10T06:25:27;2.97;;;2.80;;
10687;SDS011;5392;42.688;23.298;2023-06-10T06:27:54;4.13;;;2.78;;
10687;SDS011;5392;42.688;23.298;2023-06-10T06:30:21;2.70;;;1.80;;
10687;SDS011;5392;42.688;23.298;2023-06-10T06:32:47;2.00;;;1.80;;
10687;SDS011;5392;42.688;23.298;2023-06-10T06:35:14;2.67;;;2.58;;
10687;SDS011;5392;42.688;23.298;2023-06-10T06:37:41;4.50;;;2.83;;
10687;SDS011;5392;42.688;23.298;2023-06-10T06:40:07;5.15;;;3.50;;
10687;SDS011;5392;42.688;23.298;2023-06-10T06:42:35;6.82;;;4.38;;
10687;SDS011;5392;42.688;23.298;2023-06-10T06:45:01;3.40;;;3.10;;
10687;SDS011;5392;42.688;23.298;2023-06-10T06:47:29;3.47;;;3.03;;
10687;SDS011;5392;42.688;23.298;2023-06-10T06:49:56;4.28;;;3.88;;
10687;SDS011;5392;42.688;23.298;2023-06-10T06:52:22;4.05;;;3.55;;
10687;SDS011;5392;42.688;23.298;2023-06-10T06:54:49;9.52;;;3.78;;
10687;SDS011;5392;42.688;23.298;2023-06-10T06:57:16;7.95;;;3.90;;
10687;SDS011;5392;42.688;23.298;2023-06-10T06:59:42;4.13;;;3.42;;
10687;SDS011;5392;42.688;23.298;2023-06-10T07:02:10;3.97;;;2.70;;
10687;SDS011;5392;42.688;23.298;2023-06-10T07:04:37;5.45;;;2.42;;
10687;SDS011;5392;42.688;23.298;2023-06-10T07:07:04;5.93;;;2.80;;
10687;SDS011;5392;42.688;23.298;2023-06-10T07:09:31;3.15;;;2.78;;
10687;SDS011;5392;42.688;23.298;2023-06-10T07:11:57;5.53;;;2.53;;
10687;SDS011;5392;42.688;23.298;2023-06-10T07:14:24;3.72;;;1.80;;
10687;SDS011;5392;42.688;23.298;2023-06-10T07:16:51;8.27;;;2.63;;
10687;SDS011;5392;42.688;23.298;2023-06-10T07:19:18;2.40;;;2.30;;
10687;SDS011;5392;42.688;23.298;2023-06-10T07:21:44;4.78;;;3.17;;
10687;SDS011;5392;42.688;23.298;2023-06-10T07:24:11;4.28;;;2.17;;
10687;SDS011;5392;42.688;23.298;2023-06-10T07:26:38;6.13;;;2.70;;
10687;SDS011;5392;42.688;23.298;2023-06-10T07:29:05;4.80;;;2.35;;
10687;SDS011;5392;42.688;23.298;2023-06-10T07:31:31;2.85;;;2.20;;
10687;SDS011;5392;42.688;23.298;2023-06-10T07:33:58;1.77;;;1.67;;
10687;SDS011;5392;42.688;23.298;2023-06-10T07:36:25;7.75;;;1.98;;
10687;SDS011;5392;42.688;23.298;2023-06-10T07:38:54;3.55;;;2.05;;
10687;SDS011;5392;42.688;23.298;2023-06-10T07:41:22;3.00;;;2.75;;
10687;SDS011;5392;42.688;23.298;2023-06-10T07:43:52;3.38;;;1.88;;
10687;SDS011;5392;42.688;23.298;2023-06-10T07:46:21;4.18;;;1.73;;
10687;SDS011;5392;42.688;23.298;2023-06-10T07:48:49;4.03;;;1.40;;
10687;SDS011;5392;42.688;23.298;2023-06-10T07:51:16;2.00;;;1.00;;
10687;SDS011;5392;42.688;23.298;2023-06-10T07:53:43;1.58;;;0.73;;
10687;SDS011;5392;42.688;23.298;2023-06-10T07:56:10;1.23;;;1.17;;
10687;SDS011;5392;42.688;23.298;2023-06-10T07:58:36;2.63;;;1.13;;
10687;SDS011;5392;42.688;23.298;2023-06-10T08:01:03;1.02;;;1.00;;
10687;SDS011;5392;42.688;23.298;2023-06-10T08:03:30;2.65;;;1.35;;
10687;SDS011;5392;42.688;23.298;2023-06-10T08:05:56;1.48;;;1.17;;
10687;SDS011;5392;42.688;23.298;2023-06-10T08:08:23;1.25;;;1.10;;
10687;SDS011;5392;42.688;23.298;2023-06-10T08:10:50;3.22;;;1.20;;
10687;SDS011;5392;42.688;23.298;2023-06-10T08:13:16;1.17;;;1.10;;
10687;SDS011;5392;42.688;23.298;2023-06-10T08:15:43;1.45;;;1.35;;
10687;SDS011;5392;42.688;23.298;2023-06-10T08:18:10;2.92;;;1.38;;
10687;SDS011;5392;42.688;23.298;2023-06-10T08:20:36;1.13;;;1.13;;
10687;SDS011;5392;42.688;23.298;2023-06-10T08:23:03;2.97;;;1.58;;
10687;SDS011;5392;42.688;23.298;2023-06-10T08:25:30;5.50;;;1.20;;
10687;SDS011;5392;42.688;23.298;2023-06-10T08:27:56;1.45;;;1.33;;
10687;SDS011;5392;42.688;23.298;2023-06-10T08:30:23;2.38;;;1.10;;
10687;SDS011;5392;42.688;23.298;2023-06-10T08:32:50;1.20;;;1.10;;
10687;SDS011;5392;42.688;23.298;2023-06-10T08:35:18;1.27;;;1.17;;
10687;SDS011;5392;42.688;23.298;2023-06-10T08:37:45;3.80;;;1.30;;
10687;SDS011;5392;42.688;23.298;2023-06-10T08:40:12;5.78;;;1.73;;
10687;SDS011;5392;42.688;23.298;2023-06-10T08:42:39;6.82;;;1.58;;
10687;SDS011;5392;42.688;23.298;2023-06-10T08:45:29;4.22;;;1.52;;
10687;SDS011;5392;42.688;23.298;2023-06-10T08:48:05;0.82;;;0.82;;
10687;SDS011;5392;42.688;23.298;2023-06-10T08:50:34;0.90;;;0.90;;
10687;SDS011;5392;42.688;23.298;2023-06-10T08:53:04;0.70;;;0.70;;
10687;SDS011;5392;42.688;23.298;2023-06-10T08:55:32;3.67;;;0.60;;
10687;SDS011;5392;42.688;23.298;2023-06-10T08:58:02;1.50;;;0.70;;
10687;SDS011;5392;42.688;23.298;2023-06-10T09:00:30;0.60;;;0.60;;
10687;SDS011;5392;42.688;23.298;2023-06-10T09:02:58;0.70;;;0.57;;
10687;SDS011;5392;42.688;23.298;2023-06-10T09:05:30;3.70;;;0.70;;
10687;SDS011;5392;42.688;23.298;2023-06-10T09:08:00;1.65;;;0.60;;
10687;SDS011;5392;42.688;23.298;2023-06-10T09:10:27;1.77;;;1.05;;
10687;SDS011;5392;42.688;23.298;2023-06-10T09:12:54;1.83;;;0.82;;
10687;SDS011;5392;42.688;23.298;2023-06-10T09:15:20;4.05;;;0.73;;
10687;SDS011;5392;42.688;23.298;2023-06-10T09:17:47;0.60;;;0.60;;
10687;SDS011;5392;42.688;23.298;2023-06-10T09:20:14;0.60;;;0.60;;
10687;SDS011;5392;42.688;23.298;2023-06-10T09:22:42;2.10;;;0.65;;
10687;SDS011;5392;42.688;23.298;2023-06-10T09:25:12;0.95;;;0.60;;
10687;SDS011;5392;42.688;23.298;2023-06-10T09:27:46;1.75;;;0.70;;
10687;SDS011;5392;42.688;23.298;2023-06-10T09:30:24;1.48;;;0.82;;
10687;SDS011;5392;42.688;23.298;2023-06-10T09:32:59;1.33;;;0.60;;
10687;SDS011;5392;42.688;23.298;2023-06-10T09:35:29;2.40;;;0.80;;
10687;SDS011;5392;42.688;23.298;2023-06-10T09:37:57;0.90;;;0.90;;
10687;SDS011;5392;42.688;23.298;2023-06-10T09:40:25;1.33;;;0.70;;
10687;SDS011;5392;42.688;23.298;2023-06-10T09:42:52;1.27;;;0.80;;
10687;SDS011;5392;42.688;23.298;2023-06-10T09:45:21;1.88;;;0.90;;
10687;SDS011;5392;42.688;23.298;2023-06-10T09:47:53;1.85;;;1.00;;
10687;SDS011;5392;42.688;23.298;2023-06-10T09:50:20;1.30;;;1.23;;
10687;SDS011;5392;42.688;23.298;2023-06-10T09:52:50;1.60;;;1.13;;
10687;SDS011;5392;42.688;23.298;2023-06-10T09:55:17;1.40;;;1.10;;
10687;SDS011;5392;42.688;23.298;2023-06-10T09:57:44;2.38;;;0.95;;
10687;SDS011;5392;42.688;23.298;2023-06-10T10:00:16;1.27;;;0.73;;
10687;SDS011;5392;42.688;23.298;2023-06-10T10:02:47;0.75;;;0.70;;
10687;SDS011;5392;42.688;23.298;2023-06-10T10:05:21;0.93;;;0.82;;
10687;SDS011;5392;42.688;23.298;2023-06-10T10:07:49;2.60;;;0.60;;
10687;SDS011;5392;42.688;23.298;2023-06-10T10:10:17;1.95;;;0.60;;
10687;SDS011;5392;42.688;23.298;2023-06-10T10:12:46;1.23;;;0.70;;
10687;SDS011;5392;42.688;23.298;2023-06-10T10:15:15;1.70;;;0.55;;
10687;SDS011;5392;42.688;23.298;2023-06-10T10:17:53;1.40;;;0.50;;
10687;SDS011;5392;42.688;23.298;2023-06-10T10:20:27;1.50;;;0.50;;
10687;SDS011;5392;42.688;23.298;2023-06-10T10:22:57;1.08;;;0.50;;
10687;SDS011;5392;42.688;23.298;2023-06-10T10:25:32;0.60;;;0.60;;
10687;SDS011;5392;42.688;23.298;2023-06-10T10:28:11;2.45;;;0.60;;
10687;SDS011;5392;42.688;23.298;2023-06-10T10:30:46;1.80;;;0.50;;
10687;SDS011;5392;42.688;23.298;2023-06-10T10:33:16;0.50;;;0.50;;
10687;SDS011;5392;42.688;23.298;2023-06-10T10:35:47;0.60;;;0.60;;
10687;SDS011;5392;42.688;23.298;2023-06-10T10:38:13;0.90;;;0.60;;
10687;SDS011;5392;42.688;23.298;2023-06-10T10:40:41;1.77;;;0.80;;
10687;SDS011;5392;42.688;23.298;2023-06-10T10:43:09;1.20;;;1.00;;
10687;SDS011;5392;42.688;23.298;2023-06-10T10:45:37;1.38;;;0.60;;
10687;SDS011;5392;42.688;23.298;2023-06-10T10:48:12;0.50;;;0.50;;
10687;SDS011;5392;42.688;23.298;2023-06-10T10:50:41;0.90;;;0.55;;
10687;SDS011;5392;42.688;23.298;2023-06-10T10:53:08;1.10;;;0.50;;
10687;SDS011;5392;42.688;23.298;2023-06-10T10:55:34;0.50;;;0.50;;
10687;SDS011;5392;42.688;23.298;2023-06-10T10:58:05;0.60;;;0.60;;
10687;SDS011;5392;42.688;23.298;2023-06-10T11:03:05;0.98;;;0.75;;
10687;SDS011;5392;42.688;23.298;2023-06-10T11:05:40;1.00;;;0.70;;
10687;SDS011;5392;42.688;23.298;2023-06-10T11:08:11;2.53;;;0.60;;
10687;SDS011;5392;42.688;23.298;2023-06-10T11:10:39;0.60;;;0.60;;
10687;SDS011;5392;42.688;23.298;2023-06-10T11:15:38;0.65;;;0.57;;
10687;SDS011;5392;42.688;23.298;2023-06-10T11:18:15;0.50;;;0.50;;
10687;SDS011;5392;42.688;23.298;2023-06-10T11:34:00;1.83;;;0.70;;
10687;SDS011;5392;42.688;23.298;2023-06-10T11:36:33;1.77;;;0.80;;
10687;SDS011;5392;42.688;23.298;2023-06-10T11:39:03;1.00;;;0.80;;
10687;SDS011;5392;42.688;23.298;2023-06-10T11:41:32;2.53;;;0.85;;
10687;SDS011;5392;42.688;23.298;2023-06-10T11:44:03;1.08;;;0.85;;
10687;SDS011;5392;42.688;23.298;2023-06-10T11:46:34;2.20;;;1.00;;
10687;SDS011;5392;42.688;23.298;2023-06-10T11:49:02;0.93;;;0.93;;
10687;SDS011;5392;42.688;23.298;2023-06-10T11:51:32;1.75;;;0.90;;
10687;SDS011;5392;42.688;23.298;2023-06-10T11:54:01;1.52;;;0.70;;
10687;SDS011;5392;42.688;23.298;2023-06-10T11:56:29;0.85;;;0.60;;
10687;SDS011;5392;42.688;23.298;2023-06-10T12:01:24;1.30;;;0.75;;
10687;SDS011;5392;42.688;23.298;2023-06-10T12:04:04;0.63;;;0.60;;
10687;SDS011;5392;42.688;23.298;2023-06-10T12:06:48;0.90;;;0.60;;
10687;SDS011;5392;42.688;23.298;2023-06-10T12:19:57;0.50;;;0.50;;
10687;SDS011;5392;42.688;23.298;2023-06-10T12:22:24;0.73;;;0.50;;
10687;SDS011;5392;42.688;23.298;2023-06-10T12:24:59;0.60;;;0.60;;
10687;SDS011;5392;42.688;23.298;2023-06-10T12:27:26;1.50;;;0.55;;
10687;SDS011;5392;42.688;23.298;2023-06-10T12:29:57;0.60;;;0.60;;
10687;SDS011;5392;42.688;23.298;2023-06-10T12:35:05;1.17;;;0.60;;
10687;SDS011;5392;42.688;23.298;2023-06-10T12:37:33;0.60;;;0.60;;
10687;SDS011;5392;42.688;23.298;2023-06-10T12:40:03;0.57;;;0.57;;
10687;SDS011;5392;42.688;23.298;2023-06-10T12:42:38;1.50;;;0.60;;
10687;SDS011;5392;42.688;23.298;2023-06-10T12:45:05;0.50;;;0.50;;
10687;SDS011;5392;42.688;23.298;2023-06-10T12:47:36;0.50;;;0.50;;
10687;SDS011;5392;42.688;23.298;2023-06-10T12:50:05;0.68;;;0.60;;
10687;SDS011;5392;42.688;23.298;2023-06-10T12:52:33;0.55;;;0.55;;
10687;SDS011;5392;42.688;23.298;2023-06-10T12:54:59;1.38;;;0.60;;
10687;SDS011;5392;42.688;23.298;2023-06-10T12:57:27;0.50;;;0.50;;
10687;SDS011;5392;42.688;23.298;2023-06-10T12:59:54;2.25;;;0.63;;
10687;SDS011;5392;42.688;23.298;2023-06-10T13:02:23;2.20;;;0.63;;
10687;SDS011;5392;42.688;23.298;2023-06-10T13:04:50;0.55;;;0.55;;
10687;SDS011;5392;42.688;23.298;2023-06-10T13:07:17;0.60;;;0.60;;
10687;SDS011;5392;42.688;23.298;2023-06-10T13:09:44;1.15;;;0.50;;
10687;SDS011;5392;42.688;23.298;2023-06-10T13:12:11;1.00;;;0.60;;
10687;SDS011;5392;42.688;23.298;2023-06-10T13:14:42;1.20;;;0.60;;
10687;SDS011;5392;42.688;23.298;2023-06-10T13:17:08;0.98;;;0.60;;
10687;SDS011;5392;42.688;23.298;2023-06-10T13:19:35;6.18;;;0.80;;
10687;SDS011;5392;42.688;23.298;2023-06-10T13:22:03;2.35;;;1.00;;
10687;SDS011;5392;42.688;23.298;2023-06-10T13:24:29;1.88;;;0.80;;
10687;SDS011;5392;42.688;23.298;2023-06-10T13:26:56;1.60;;;0.88;;
10687;SDS011;5392;42.688;23.298;2023-06-10T13:29:23;3.53;;;1.20;;
10687;SDS011;5392;42.688;23.298;2023-06-10T13:31:50;1.95;;;0.80;;
10687;SDS011;5392;42.688;23.298;2023-06-10T13:34:17;1.10;;;0.70;;
10687;SDS011;5392;42.688;23.298;2023-06-10T13:36:44;1.25;;;1.00;;
10687;SDS011;5392;42.688;23.298;2023-06-10T13:39:10;2.78;;;1.40;;
10687;SDS011;5392;42.688;23.298;2023-06-10T13:41:37;2.47;;;1.45;;
10687;SDS011;5392;42.688;23.298;2023-06-10T13:44:03;3.22;;;1.60;;
10687;SDS011;5392;42.688;23.298;2023-06-10T13:46:30;2.10;;;2.05;;
10687;SDS011;5392;42.688;23.298;2023-06-10T13:48:57;3.38;;;1.58;;
10687;SDS011;5392;42.688;23.298;2023-06-10T13:51:24;2.00;;;1.50;;
10687;SDS011;5392;42.688;23.298;2023-06-10T13:53:51;5.78;;;1.63;;
10687;SDS011;5392;42.688;23.298;2023-06-10T13:56:18;4.20;;;1.60;;
10687;SDS011;5392;42.688;23.298;2023-06-10T13:58:45;12.30;;;2.60;;
10687;SDS011;5392;42.688;23.298;2023-06-10T14:01:12;12.45;;;2.22;;
10687;SDS011;5392;42.688;23.298;2023-06-10T14:03:38;3.78;;;1.90;;
10687;SDS011;5392;42.688;23.298;2023-06-10T14:06:05;6.32;;;2.10;;
10687;SDS011;5392;42.688;23.298;2023-06-10T14:08:32;4.22;;;1.67;;
10687;SDS011;5392;42.688;23.298;2023-06-10T14:10:58;7.57;;;1.80;;
10687;SDS011;5392;42.688;23.298;2023-06-10T14:13:25;9.15;;;2.00;;
10687;SDS011;5392;42.688;23.298;2023-06-10T14:15:52;3.78;;;1.42;;
10687;SDS011;5392;42.688;23.298;2023-06-10T14:18:18;6.13;;;1.60;;
10687;SDS011;5392;42.688;23.298;2023-06-10T14:20:45;5.68;;;1.63;;
10687;SDS011;5392;42.688;23.298;2023-06-10T14:23:12;3.08;;;1.35;;
10687;SDS011;5392;42.688;23.298;2023-06-10T14:25:39;8.25;;;2.00;;
10687;SDS011;5392;42.688;23.298;2023-06-10T14:28:05;3.85;;;1.17;;
10687;SDS011;5392;42.688;23.298;2023-06-10T14:30:32;2.97;;;1.40;;
10687;SDS011;5392;42.688;23.298;2023-06-10T14:32:59;1.63;;;1.13;;
10687;SDS011;5392;42.688;23.298;2023-06-10T14:35:25;2.80;;;1.25;;
10687;SDS011;5392;42.688;23.298;2023-06-10T14:37:52;1.88;;;1.20;;
10687;SDS011;5392;42.688;23.298;2023-06-10T14:40:19;5.70;;;1.45;;
10687;SDS011;5392;42.688;23.298;2023-06-10T14:42:47;8.45;;;1.73;;
10687;SDS011;5392;42.688;23.298;2023-06-10T14:45:15;1.85;;;1.58;;
10687;SDS011;5392;42.688;23.298;2023-06-10T14:47:42;1.58;;;0.80;;
10687;SDS011;5392;42.688;23.298;2023-06-10T14:50:09;0.95;;;0.93;;
10687;SDS011;5392;42.688;23.298;2023-06-10T14:52:35;1.63;;;1.20;;
10687;SDS011;5392;42.688;23.298;2023-06-10T14:55:02;3.83;;;0.98;;
10687;SDS011;5392;42.688;23.298;2023-06-10T14:57:29;5.07;;;1.23;;
10687;SDS011;5392;42.688;23.298;2023-06-10T14:59:57;4.80;;;1.33;;
10687;SDS011;5392;42.688;23.298;2023-06-10T15:02:23;1.20;;;1.00;;
10687;SDS011;5392;42.688;23.298;2023-06-10T15:04:50;2.05;;;0.88;;
10687;SDS011;5392;42.688;23.298;2023-06-10T15:07:17;3.60;;;0.90;;
10687;SDS011;5392;42.688;23.298;2023-06-10T15:09:44;2.03;;;1.02;;
10687;SDS011;5392;42.688;23.298;2023-06-10T15:12:10;3.90;;;1.00;;
10687;SDS011;5392;42.688;23.298;2023-06-10T15:14:37;0.70;;;0.70;;
10687;SDS011;5392;42.688;23.298;2023-06-10T15:17:04;1.00;;;0.80;;
10687;SDS011;5392;42.688;23.298;2023-06-10T15:19:31;1.63;;;1.10;;
10687;SDS011;5392;42.688;23.298;2023-06-10T15:21:57;1.38;;;1.00;;
10687;SDS011;5392;42.688;23.298;2023-06-10T15:24:24;3.28;;;1.58;;
10687;SDS011;5392;42.688;23.298;2023-06-10T15:26:51;1.90;;;1.10;;
10687;SDS011;5392;42.688;23.298;2023-06-10T15:29:17;1.00;;;0.90;;